Terminal Aerodrome Forecast
Issued by NWS

Home | Current Version | Previous Version | Text Only | Print | Product List | Glossary On
Versions: 1 2 3 4 5 6 7 8 9 10 11 12 13 14 15 16 17 18 19
670
FTUS44 KLIX 290352 AAA
TAFMCB
TAF AMD
KMCB 290352Z 2904/2924 16007KT P6SM BKN008
     FM290900 16006KT 4SM BR BKN003
     FM291500 15008KT P6SM BKN008
     FM291700 16010KT P6SM SCT040
     FM291800 16010KT P6SM SCT200=

USA.gov is the U.S. government's official web portal to all federal, state and local government web resources and services.